首页
METAR-TAF:

METAR-TAF

机场 :

Chapleau, 安大略省, 加拿大

纬度: 47-49N, 经度: 083-21W, 海拔: 447米

当前天气观测

该预报发布于48分钟前的18:00 UTC
风速6节,风向多变
温度 8°C
湿度 46%
气压 1014 hPa
能見度: 24.1公里
散云层高于28000英尺

METAR: CYLD 281800Z VRB06KT 15SM SCT280 08/M03 A2994 RMK CC3 CI ASOCTD SLP162

时间: 14:48 (18:48 UTC)

预报

该预报发布于5小时和10分钟前的13:38 UTC
预报有效从28日的 14点(UTC)到 29日的 01点(UTC)
风速5节,风向南转南东
能見度: 10公里
散云层高于18000英尺
多云层高于24000英尺
成为
从 28日的 16点(UTC)到 28日的 18点(UTC)
风速8节,风向东转东北
从 29日的 0000点(UTC)
风速8节,风向东转东北
能見度: 10公里
多云层高于12000英尺

TAF: CYLD 281338Z 2814/2901 16005KT P6SM SCT180 BKN240 BECMG 2816/2818 06008KT FM290000 06008KT P6SM BKN120 RMK NXT FCST BY 282000Z

超过4000个机场的气象观测和天气预报(METAR&TAF报告)。

可查询的气象台以黄色和红色小点在地图上表示。

将鼠标移到小点上方,可查看气象台名称。

然后点击查看天气观测和预报。

如需切换地图:点击带黑十字的绿色按钮放大地图;点击带横线的绿色按钮缩小地图;或者点击绿色箭头查看邻近地区的地图。


METAR-TAF: